Antler, ND (58711)

4:09 AM CDT on July 30, 2014 (GMT -0500)
East End Behind Tesoro (KNDMOHAL2) Elev 1631 ft | 48.77 °N, 101.50 °W | Change Station
Active Advisory: Flood Warning

Current weather conditions updated 1 second ago

Scattered Clouds
Scattered Clouds
63.0 °F
Feels Like 63.0 °F
N
1.6
Wind Variable Wind from SW
Gusts 3.5 mph

Today is forecast to be Warmer than yesterday.

Today
High -- | Low -- °F
--% Chance of Precip.
Yesterday
High -- | Low -- °F
Precip. -- in
6:15 AM 9:26 PM
Waxing Crescent, 10% visible
Pressure 30.15 in
Visibility 7.0 miles
Clouds Scattered Clouds 4800 ft
Dew Point 61 °F
Humidity 93%
Rainfall 0.00 in
Snow Depth Not available.
UV 0.0 out of 12
Pollen 6.80 out of 12
Air Quality Not available.
Flu Activity Not available.
SPECI KMIB 300903Z AUTO 27005KT 7SM R11/5500FT SCT048 15/15 A3015 RMK AO2

More Conditions Fewer Conditions

Pressure 30.15 in
Visibility 7.0 miles
Clouds Scattered Clouds 4800 ft
Dew Point 61 °F
Humidity 93%
Rainfall 0.00 in
Snow Depth Not available.
UV 0.0 out of 12
Pollen 6.80 out of 12
Air Quality Not available.
Flu Activity Not available.
SPECI KMIB 300903Z AUTO 27005KT 7SM R11/5500FT SCT048 15/15 A3015 RMK AO2

More Conditions Fewer Conditions

10-Day Weather Forecast

Almanac

Astronomy

Jul. 30, 2014 Rise Set
Actual Time 6:15 AM CDT 9:26 PM CDT
Civil Twilight 5:38 AM CDT 10:04 PM CDT
Nautical Twilight 4:48 AM CDT 10:53 PM CDT
Astronomical Twilight 3:45 AM CDT 11:55 PM CDT
Moon 10:12 AM CDT 10:45 PM CDT
Length of Visible Light 16h 26m
Length of Day
15h 11m
Tomorrow will be 2m 46s shorter.
Waxing Crescent, 10% of the Moon is Illuminated
Today
Waxing Crescent
Aug 3
First Quarter
Aug 10
Full
Aug 17
Last Quarter
Aug 25
New

Today's Extremes

State Highs State Lows

Community

WunderPhotos

Upload Photos

1,739,018 photos uploaded!

WunderBlogs® & News

By Dr. Jeff Masters
Director of Meteorology, Weather Underground
By Kari Strenfel
Meteorologist, Weather Underground
By Christopher C. Burt
Weather Historian, Weather Underground
July 29, 2014
July 29, 2014
July 29, 2014

Nearby

Snow Depth

Station Depth Elevation
No new snow has been reported.

Earthquake Activity

City Distance Mag. Time & Date
No recent earthquake activity has been reported nearby.
Minimum magnitude displayed is 2.5.

Coastal Water Temperatures

Place Temperature
No Stations Reporting

Nearby Weather Stations

Station Location Temp. Dew Point Humidity Wind Precip. Elev Updated Type
East End Behind Tesoro, Mohall, ND 63.0 °F 61 °F 93% SW  at  1.6 mph 0.00 in / hr 1631 ft 4:09 AM CDT Rapid Fire

Show More Stations Show Fewer Stations